createdAt,value
2018-01-17T00:00:42.010Z,1.87
2018-01-17T00:03:09.454Z,1.83
2018-01-17T00:05:36.924Z,1.73
2018-01-17T00:08:04.406Z,1.66
2018-01-17T00:10:31.858Z,1.60
2018-01-17T00:12:59.392Z,1.54
2018-01-17T00:15:27.207Z,1.48
2018-01-17T00:17:54.692Z,1.46
2018-01-17T00:20:22.161Z,1.45
2018-01-17T00:22:49.625Z,1.42
2018-01-17T00:25:17.110Z,1.38
2018-01-17T00:27:44.594Z,1.34
2018-01-17T00:30:12.130Z,1.38
2018-01-17T00:32:39.619Z,1.42
2018-01-17T00:35:07.123Z,1.47
2018-01-17T00:37:34.589Z,1.48
2018-01-17T00:40:02.045Z,1.43
2018-01-17T00:42:29.578Z,1.42
2018-01-17T00:44:57.078Z,1.39
2018-01-17T00:47:24.660Z,1.41
2018-01-17T00:49:52.219Z,1.40
2018-01-17T00:52:19.726Z,1.37
2018-01-17T00:54:47.226Z,1.40
2018-01-17T00:57:14.779Z,1.39
2018-01-17T00:59:42.300Z,1.36
2018-01-17T01:02:09.803Z,1.33
2018-01-17T01:04:37.362Z,1.27
2018-01-17T01:07:04.961Z,1.18
2018-01-17T01:09:32.478Z,1.12
2018-01-17T01:12:00.004Z,1.04
2018-01-17T01:14:27.530Z,0.99
2018-01-17T01:16:55.052Z,0.95
2018-01-17T01:19:22.596Z,0.96
2018-01-17T01:21:50.125Z,1.03
2018-01-17T01:24:17.625Z,1.08
2018-01-17T01:26:45.184Z,1.18
2018-01-17T01:29:12.706Z,1.22
2018-01-17T01:31:40.226Z,1.26
2018-01-17T01:34:07.752Z,1.27
2018-01-17T01:36:35.364Z,1.31
2018-01-17T01:39:02.896Z,1.33
2018-01-17T01:41:30.410Z,1.37
2018-01-17T01:43:57.965Z,1.39
2018-01-17T01:46:25.472Z,1.34
2018-01-17T01:49:00.934Z,1.25
2018-01-17T01:51:28.440Z,1.19
2018-01-17T01:53:55.964Z,1.16
2018-01-17T01:56:23.520Z,1.21
2018-01-17T01:58:51.054Z,1.23
2018-01-17T02:01:18.635Z,1.25
2018-01-17T02:03:46.190Z,1.24
2018-01-17T02:06:13.700Z,1.18
2018-01-17T02:08:41.207Z,1.13
2018-01-17T02:11:08.742Z,1.06
2018-01-17T02:13:36.273Z,1.01
2018-01-17T02:16:03.839Z,0.95
2018-01-17T02:18:31.382Z,0.87
2018-01-17T02:20:59.005Z,0.81
2018-01-17T02:23:26.517Z,0.73
2018-01-17T02:25:54.074Z,0.70
2018-01-17T02:28:21.612Z,0.70
2018-01-17T02:30:49.155Z,0.72
2018-01-17T02:33:16.891Z,0.73
2018-01-17T02:35:44.403Z,0.72
2018-01-17T02:38:11.910Z,0.70
2018-01-17T02:40:39.463Z,0.69
2018-01-17T02:43:07.005Z,0.68
2018-01-17T02:45:34.549Z,0.65
2018-01-17T02:48:02.107Z,0.61
2018-01-17T02:50:29.657Z,0.59
2018-01-17T02:52:57.165Z,0.56
2018-01-17T02:55:24.860Z,0.57
2018-01-17T02:57:52.376Z,0.56
2018-01-17T03:00:19.898Z,0.54
2018-01-17T03:02:47.465Z,0.59
2018-01-17T03:05:15.003Z,0.70
2018-01-17T03:07:42.522Z,0.82
2018-01-17T03:10:10.081Z,0.91
2018-01-17T03:12:37.590Z,1.01
2018-01-17T03:15:05.696Z,1.07
2018-01-17T03:17:34.157Z,1.12
2018-01-17T03:20:01.668Z,1.11
2018-01-17T03:22:29.196Z,1.05
2018-01-17T03:24:57.109Z,0.95
2018-01-17T03:27:24.634Z,0.85
2018-01-17T03:29:52.138Z,0.78
2018-01-17T03:32:19.705Z,0.71
2018-01-17T03:34:47.245Z,0.67
2018-01-17T03:37:14.770Z,0.65
2018-01-17T03:39:42.306Z,0.63
2018-01-17T03:42:09.838Z,0.63
2018-01-17T03:44:37.381Z,0.58
2018-01-17T03:47:04.956Z,0.56
2018-01-17T03:49:32.479Z,0.55
2018-01-17T03:52:00.014Z,0.53
2018-01-17T03:54:27.574Z,0.54
2018-01-17T03:56:55.101Z,0.50
2018-01-17T03:59:22.644Z,0.43
2018-01-17T04:01:50.364Z,0.38
2018-01-17T04:04:17.882Z,0.33
2018-01-17T04:06:45.428Z,0.27
2018-01-17T04:09:12.966Z,0.24
2018-01-17T04:11:40.477Z,0.21
2018-01-17T04:14:08.031Z,0.23
2018-01-17T04:16:35.606Z,0.26
2018-01-17T04:19:03.140Z,0.30
2018-01-17T04:21:30.704Z,0.29
2018-01-17T04:23:58.235Z,0.28
2018-01-17T04:26:25.773Z,0.29
2018-01-17T04:28:53.286Z,0.40
2018-01-17T04:31:20.819Z,0.50
2018-01-17T04:33:48.393Z,0.59
2018-01-17T04:36:15.938Z,0.69
2018-01-17T04:38:43.472Z,0.72
2018-01-17T04:41:16.034Z,0.76
2018-01-17T04:43:43.552Z,0.77
2018-01-17T04:46:11.086Z,0.81
2018-01-17T04:48:38.609Z,0.87
2018-01-17T04:51:06.141Z,0.92
2018-01-17T04:53:33.673Z,0.97
2018-01-17T04:56:01.194Z,0.98
2018-01-17T04:58:28.776Z,1.02
2018-01-17T05:00:56.293Z,1.05
2018-01-17T05:03:23.821Z,1.03
2018-01-17T05:05:51.521Z,1.05
2018-01-17T05:08:19.054Z,1.09
2018-01-17T05:10:46.567Z,1.10
2018-01-17T05:13:14.127Z,1.13
2018-01-17T05:15:41.637Z,1.14
2018-01-17T05:18:09.172Z,1.16
2018-01-17T05:20:36.725Z,1.13
2018-01-17T05:23:04.242Z,1.13
2018-01-17T05:25:31.786Z,1.11
2018-01-17T05:27:59.328Z,1.12
2018-01-17T05:30:26.857Z,1.14
2018-01-17T05:32:54.415Z,1.16
2018-01-17T05:35:21.941Z,1.19
2018-01-17T05:37:49.450Z,1.20
2018-01-17T05:40:16.983Z,1.21
2018-01-17T05:42:44.753Z,1.24
2018-01-17T05:45:12.287Z,1.25
2018-01-17T05:47:39.810Z,1.25
2018-01-17T05:50:07.355Z,1.25
2018-01-17T05:52:34.914Z,1.25
2018-01-17T05:55:02.453Z,1.23
2018-01-17T05:57:29.962Z,1.24
2018-01-17T05:59:57.489Z,1.26
2018-01-17T06:02:24.994Z,1.27
2018-01-17T06:04:52.557Z,1.32
2018-01-17T06:07:20.083Z,1.34
2018-01-17T06:09:47.603Z,1.37
2018-01-17T06:12:15.154Z,1.36
2018-01-17T06:14:42.662Z,1.41
2018-01-17T06:17:10.225Z,1.43
2018-01-17T06:19:37.755Z,1.45
2018-01-17T06:22:05.290Z,1.46
2018-01-17T06:24:33.336Z,1.49
2018-01-17T06:27:00.878Z,1.51
2018-01-17T06:29:28.416Z,1.49
2018-01-17T06:31:56.092Z,1.47
2018-01-17T06:34:23.616Z,1.52
2018-01-17T06:36:51.123Z,1.58
2018-01-17T06:39:18.658Z,1.63
2018-01-17T06:41:46.186Z,1.64
2018-01-17T06:44:13.699Z,1.64
2018-01-17T06:46:41.257Z,1.58
2018-01-17T06:49:08.806Z,1.51
2018-01-17T06:51:36.322Z,1.44
2018-01-17T06:54:03.870Z,1.46
2018-01-17T06:56:31.414Z,1.49
2018-01-17T06:58:58.981Z,1.55
2018-01-17T07:01:26.520Z,1.57
2018-01-17T07:03:54.093Z,1.58
2018-01-17T07:06:21.665Z,1.59
2018-01-17T07:08:49.215Z,1.61
2018-01-17T07:11:16.745Z,1.64
2018-01-17T07:13:44.278Z,1.62
2018-01-17T07:16:11.782Z,1.66
2018-01-17T07:18:39.308Z,1.70
2018-01-17T07:21:06.870Z,1.74
2018-01-17T07:23:34.425Z,1.76
2018-01-17T07:26:01.970Z,1.81
2018-01-17T07:28:29.521Z,1.85
2018-01-17T07:30:57.039Z,1.93
2018-01-17T07:33:24.568Z,2.01
2018-01-17T07:35:52.342Z,2.03
2018-01-17T07:38:19.868Z,2.03
2018-01-17T07:40:47.386Z,2.03
2018-01-17T07:43:14.942Z,2.03
2018-01-17T07:45:42.486Z,1.98
2018-01-17T07:48:10.018Z,2.00
2018-01-17T07:50:37.573Z,2.00
2018-01-17T07:53:05.098Z,2.02
2018-01-17T07:55:32.643Z,2.06
2018-01-17T07:58:00.197Z,2.05
2018-01-17T08:00:27.718Z,2.04
2018-01-17T08:02:55.260Z,2.07
2018-01-17T08:05:22.810Z,2.07
2018-01-17T08:07:50.332Z,2.08
2018-01-17T08:10:17.858Z,2.08
2018-01-17T08:12:45.406Z,2.26
2018-01-17T08:15:12.947Z,2.52
2018-01-17T08:17:40.466Z,2.56
2018-01-17T08:20:08.802Z,2.31
2018-01-17T08:22:36.330Z,2.10
2018-01-17T08:25:03.963Z,1.98
2018-01-17T08:27:31.582Z,1.90
2018-01-17T08:29:59.116Z,1.85
2018-01-17T08:32:26.681Z,1.79
2018-01-17T08:34:54.207Z,1.84
2018-01-17T08:37:21.748Z,1.84
2018-01-17T08:39:49.285Z,1.78
2018-01-17T08:42:16.799Z,1.79
2018-01-17T08:44:44.362Z,1.79
2018-01-17T08:47:11.874Z,1.76
2018-01-17T08:49:39.386Z,1.64
2018-01-17T08:52:07.205Z,1.53
2018-01-17T08:54:34.746Z,1.51
2018-01-17T08:57:02.286Z,1.48
2018-01-17T08:59:29.834Z,1.44
2018-01-17T09:01:57.349Z,1.41
2018-01-17T09:04:24.886Z,1.45
2018-01-17T09:06:52.421Z,1.44
2018-01-17T09:09:19.974Z,1.40
2018-01-17T09:11:47.518Z,1.33
2018-01-17T09:14:15.083Z,1.30
2018-01-17T09:16:42.636Z,1.30
2018-01-17T09:19:10.150Z,1.32
2018-01-17T09:21:37.708Z,1.32
2018-01-17T09:24:05.255Z,1.32
2018-01-17T09:26:32.782Z,1.35
2018-01-17T09:29:00.359Z,1.39
2018-01-17T09:31:27.928Z,1.46
2018-01-17T09:33:55.501Z,1.40
2018-01-17T09:36:23.023Z,1.36
2018-01-17T09:38:50.554Z,1.37
2018-01-17T09:41:18.121Z,1.43
2018-01-17T09:43:45.650Z,1.44
2018-01-17T09:46:13.187Z,1.51
2018-01-17T09:48:40.761Z,1.58
2018-01-17T09:51:08.290Z,1.64
2018-01-17T09:53:35.856Z,1.67
2018-01-17T09:56:03.389Z,1.71
2018-01-17T09:58:30.915Z,1.70
2018-01-17T10:00:58.425Z,1.72
2018-01-17T10:03:26.416Z,1.67
2018-01-17T10:05:53.993Z,1.72
2018-01-17T10:08:21.523Z,1.75
2018-01-17T10:10:49.116Z,1.68
2018-01-17T10:13:16.634Z,1.74
2018-01-17T10:15:44.190Z,1.77
2018-01-17T10:18:12.122Z,1.71
2018-01-17T10:20:39.659Z,1.78
2018-01-17T10:23:07.192Z,1.88
2018-01-17T10:25:34.756Z,1.98
2018-01-17T10:28:02.267Z,1.97
2018-01-17T10:30:29.831Z,1.96
2018-01-17T10:32:57.381Z,1.97
2018-01-17T10:35:24.910Z,2.05
2018-01-17T10:37:52.464Z,2.08
2018-01-17T10:40:20.013Z,2.14
2018-01-17T10:42:47.791Z,2.20
2018-01-17T10:45:15.354Z,2.19
2018-01-17T10:47:42.894Z,2.27
2018-01-17T10:50:10.451Z,2.42
2018-01-17T10:52:37.978Z,2.44
2018-01-17T10:55:06.469Z,2.40
2018-01-17T10:57:34.236Z,2.45
2018-01-17T11:00:01.807Z,2.50
2018-01-17T11:02:29.332Z,2.67
2018-01-17T11:04:57.225Z,2.80
2018-01-17T11:07:24.726Z,2.89
2018-01-17T11:09:52.243Z,3.00
2018-01-17T11:12:19.810Z,3.03
2018-01-17T11:14:47.366Z,3.12
2018-01-17T11:17:14.869Z,3.19
2018-01-17T11:19:42.514Z,3.20
2018-01-17T11:22:10.021Z,3.23
2018-01-17T11:24:37.630Z,3.18
2018-01-17T11:27:05.393Z,3.29
2018-01-17T11:29:32.918Z,3.30
2018-01-17T11:32:00.426Z,3.20
2018-01-17T11:34:27.981Z,3.14
2018-01-17T11:36:55.596Z,3.10
2018-01-17T11:39:23.098Z,3.07
2018-01-17T11:41:50.736Z,2.92
2018-01-17T11:44:18.247Z,2.80
2018-01-17T11:46:45.850Z,2.73
2018-01-17T11:49:13.413Z,2.74
2018-01-17T11:51:40.954Z,2.74
2018-01-17T11:54:08.541Z,2.64
2018-01-17T11:56:36.100Z,2.60
2018-01-17T11:59:03.648Z,2.63
2018-01-17T12:01:31.198Z,2.67
2018-01-17T12:03:58.749Z,2.72
2018-01-17T12:06:26.287Z,2.68
2018-01-17T12:08:53.792Z,2.73
2018-01-17T12:11:21.322Z,2.75
2018-01-17T12:13:48.839Z,2.72
2018-01-17T12:16:16.444Z,2.73
2018-01-17T12:18:43.964Z,2.74
2018-01-17T12:21:11.513Z,2.73
2018-01-17T12:23:39.032Z,2.69
2018-01-17T12:26:06.551Z,2.65
2018-01-17T12:28:34.084Z,2.62
2018-01-17T12:31:01.591Z,2.58
2018-01-17T12:33:29.094Z,2.62
2018-01-17T12:35:56.689Z,2.66
2018-01-17T12:38:24.307Z,2.68
2018-01-17T12:40:51.872Z,2.69
2018-01-17T12:43:19.493Z,2.51
2018-01-17T12:45:47.027Z,2.37
2018-01-17T12:48:14.545Z,2.23
2018-01-17T12:50:42.199Z,2.19
2018-01-17T12:53:09.733Z,2.09
2018-01-17T12:55:37.263Z,2.06
2018-01-17T12:58:04.806Z,1.91
2018-01-17T13:00:32.322Z,1.86
2018-01-17T13:02:59.852Z,1.77
2018-01-17T13:05:27.393Z,1.77
2018-01-17T13:07:54.895Z,1.72
2018-01-17T13:10:22.411Z,1.69
2018-01-17T13:12:50.117Z,1.62
2018-01-17T13:15:17.686Z,1.58
2018-01-17T13:17:45.469Z,1.55
2018-01-17T13:20:13.112Z,1.51
2018-01-17T13:22:40.617Z,1.43
2018-01-17T13:25:08.113Z,1.35
2018-01-17T13:27:35.667Z,1.27
2018-01-17T13:30:03.193Z,1.15
2018-01-17T13:32:30.798Z,1.08
2018-01-17T13:34:58.769Z,1.03
2018-01-17T13:37:26.281Z,0.99
2018-01-17T13:39:54.283Z,0.96
2018-01-17T13:42:22.190Z,0.91
2018-01-17T13:44:50.065Z,0.88
2018-01-17T13:47:17.612Z,0.90
2018-01-17T13:49:45.257Z,0.95
2018-01-17T13:52:12.921Z,1.03
2018-01-17T13:54:40.467Z,1.12
2018-01-17T13:57:07.996Z,1.24
2018-01-17T13:59:35.569Z,1.30
2018-01-17T14:02:03.091Z,1.37
2018-01-17T14:04:30.616Z,1.38
2018-01-17T14:06:58.158Z,1.46
2018-01-17T14:09:25.716Z,1.52
2018-01-17T14:11:53.254Z,1.56
2018-01-17T14:14:20.801Z,1.63
2018-01-17T14:16:48.390Z,1.70
2018-01-17T14:19:15.911Z,1.75
2018-01-17T14:21:43.512Z,1.77
2018-01-17T14:24:11.009Z,1.77
2018-01-17T14:26:38.549Z,1.79
2018-01-17T14:29:06.083Z,1.86
2018-01-17T14:31:33.990Z,1.84
2018-01-17T14:34:01.530Z,1.82
2018-01-17T14:36:29.074Z,1.85
2018-01-17T14:38:56.580Z,1.86
2018-01-17T14:41:24.199Z,1.85
2018-01-17T14:43:51.717Z,1.89
2018-01-17T14:46:19.212Z,1.87
2018-01-17T14:48:47.002Z,1.91
2018-01-17T14:51:14.634Z,1.91
2018-01-17T14:53:42.135Z,1.93
2018-01-17T14:56:09.691Z,1.96
2018-01-17T14:58:37.207Z,1.98
2018-01-17T15:01:04.766Z,1.99
2018-01-17T15:03:32.296Z,2.00
2018-01-17T15:05:59.797Z,2.02
2018-01-17T15:08:27.298Z,2.04
2018-01-17T15:10:54.904Z,2.05
2018-01-17T15:13:22.409Z,2.06
2018-01-17T15:15:49.910Z,2.06
2018-01-17T15:18:17.413Z,2.04
2018-01-17T15:20:44.945Z,2.03
2018-01-17T15:23:12.631Z,2.02
2018-01-17T15:25:40.157Z,2.00
2018-01-17T15:28:07.648Z,2.01
2018-01-17T15:30:35.382Z,1.95
2018-01-17T15:33:02.918Z,1.91
2018-01-17T15:35:30.421Z,1.87
2018-01-17T15:37:57.945Z,1.87
2018-01-17T15:40:25.575Z,1.93
2018-01-17T15:42:53.101Z,2.01
2018-01-17T15:45:20.857Z,2.08
2018-01-17T15:47:48.425Z,2.08
2018-01-17T15:50:16.368Z,2.11
2018-01-17T15:52:44.691Z,2.13
2018-01-17T15:55:12.269Z,2.16
2018-01-17T15:57:39.866Z,2.18
2018-01-17T16:00:07.396Z,2.21
2018-01-17T16:02:35.000Z,2.21
2018-01-17T16:05:02.534Z,2.21
2018-01-17T16:07:30.132Z,2.20
2018-01-17T16:09:57.697Z,2.20
2018-01-17T16:12:25.221Z,2.24
2018-01-17T16:14:52.839Z,2.28
2018-01-17T16:17:20.854Z,2.29
2018-01-17T16:19:48.433Z,2.29
2018-01-17T16:22:15.984Z,2.24
2018-01-17T16:24:43.500Z,2.24
2018-01-17T16:27:11.013Z,2.21
2018-01-17T16:29:38.565Z,2.24
2018-01-17T16:32:06.962Z,2.27
2018-01-17T16:34:34.503Z,2.27
2018-01-17T17:20:43.253Z,2.31
2018-01-17T17:23:10.770Z,2.29
2018-01-17T17:25:38.281Z,2.31
2018-01-17T17:28:05.839Z,2.32
2018-01-17T17:30:33.370Z,2.33
2018-01-17T17:33:00.890Z,2.32
2018-01-17T17:35:28.445Z,2.33
2018-01-17T17:37:55.953Z,2.36
2018-01-17T17:40:23.466Z,2.36
2018-01-17T17:42:51.014Z,2.34
2018-01-17T17:45:18.819Z,2.31
2018-01-17T17:47:46.539Z,2.32
2018-01-17T17:50:14.098Z,2.31
2018-01-17T17:52:41.647Z,2.31
2018-01-17T17:55:09.202Z,2.34
2018-01-17T17:57:36.732Z,2.34
2018-01-17T18:00:04.281Z,2.33
2018-01-17T18:02:31.837Z,2.34
2018-01-17T18:04:59.385Z,2.29
2018-01-17T18:07:26.936Z,2.25
2018-01-17T18:09:54.497Z,2.24
2018-01-17T18:12:22.029Z,2.26
2018-01-17T18:14:49.535Z,2.29
2018-01-17T18:17:17.226Z,2.31
2018-01-17T18:19:44.758Z,2.32
2018-01-17T18:22:12.256Z,2.37
2018-01-17T18:24:39.803Z,2.36
2018-01-17T18:27:07.320Z,2.40
2018-01-17T18:29:34.864Z,2.43
2018-01-17T18:32:02.369Z,2.41
2018-01-17T18:34:29.890Z,2.40
2018-01-17T18:36:57.867Z,2.39
2018-01-17T18:39:25.394Z,2.40
2018-01-17T18:41:53.457Z,2.40
2018-01-17T18:44:21.017Z,2.41
2018-01-17T18:46:48.526Z,2.45
2018-01-17T18:49:16.033Z,2.47
2018-01-17T18:51:43.810Z,2.48
2018-01-17T18:54:11.375Z,2.47
2018-01-17T18:56:38.930Z,2.47
2018-01-17T18:59:06.697Z,2.52
2018-01-17T19:01:34.219Z,2.49
2018-01-17T19:04:01.721Z,2.48
2018-01-17T19:06:29.378Z,2.43
2018-01-17T19:08:56.891Z,2.39
2018-01-17T19:11:24.386Z,2.33
2018-01-17T19:13:52.009Z,2.32
2018-01-17T19:16:19.534Z,2.30
2018-01-17T19:18:47.069Z,2.31
2018-01-17T19:21:14.584Z,2.32
2018-01-17T19:23:42.124Z,2.33
2018-01-17T19:26:09.651Z,2.32
2018-01-17T19:28:38.030Z,2.33
2018-01-17T19:31:05.533Z,2.36
2018-01-17T19:33:33.247Z,2.38
2018-01-17T19:36:01.629Z,2.39
2018-01-17T19:38:29.136Z,2.38
2018-01-17T19:40:56.700Z,2.38
2018-01-17T19:43:24.406Z,2.41
2018-01-17T19:45:51.912Z,2.41
2018-01-17T19:48:19.461Z,2.41
2018-01-17T19:50:47.200Z,2.40
2018-01-17T19:53:15.537Z,2.39
2018-01-17T19:55:43.035Z,2.35
2018-01-17T19:58:10.580Z,2.32
2018-01-17T20:00:38.117Z,2.30
2018-01-17T20:03:05.700Z,2.30
2018-01-17T20:05:33.245Z,2.33
2018-01-17T20:08:00.779Z,2.34
2018-01-17T20:10:28.398Z,2.37
2018-01-17T20:12:56.143Z,2.41
2018-01-17T20:15:23.652Z,2.45
2018-01-17T20:17:51.172Z,2.48
2018-01-17T20:20:18.741Z,2.49
2018-01-17T20:22:51.994Z,2.52
2018-01-17T20:25:19.511Z,2.47
2018-01-17T20:27:47.013Z,2.48
2018-01-17T20:30:14.611Z,2.50
2018-01-17T20:32:43.052Z,2.50
2018-01-17T20:35:10.564Z,2.51
2018-01-17T20:37:38.066Z,2.54
2018-01-17T20:40:05.620Z,2.56
2018-01-17T20:42:33.150Z,2.57
2018-01-17T20:45:00.662Z,2.59
2018-01-17T20:47:28.196Z,2.59
2018-01-17T20:49:55.824Z,2.56
2018-01-17T20:52:23.373Z,2.58
2018-01-17T20:54:50.909Z,2.61
2018-01-17T20:57:18.409Z,2.62
2018-01-17T20:59:46.022Z,2.63
2018-01-17T21:02:13.543Z,2.62
2018-01-17T21:04:41.071Z,2.63
2018-01-17T21:07:08.612Z,2.64
2018-01-17T21:09:36.129Z,2.65
2018-01-17T21:12:03.663Z,2.65
2018-01-17T21:14:31.250Z,2.65
2018-01-17T21:16:58.778Z,2.64
2018-01-17T21:19:26.321Z,2.65
2018-01-17T21:21:53.878Z,2.69
2018-01-17T21:24:21.392Z,2.70
2018-01-17T21:26:48.924Z,2.68
2018-01-17T21:29:16.485Z,2.69
2018-01-17T21:31:44.023Z,2.69
2018-01-17T21:34:11.528Z,2.66
2018-01-17T21:36:39.703Z,2.62
2018-01-17T21:39:07.204Z,2.62
2018-01-17T21:41:34.731Z,2.64
2018-01-17T21:44:08.002Z,2.59
2018-01-17T21:46:36.467Z,2.59
2018-01-17T21:49:04.091Z,2.56
2018-01-17T21:51:31.632Z,2.53
2018-01-17T21:53:59.156Z,2.51
2018-01-17T21:56:26.684Z,2.52
2018-01-17T21:58:54.220Z,2.53
2018-01-17T22:01:21.795Z,2.52
2018-01-17T22:03:49.385Z,2.57
2018-01-17T22:06:17.077Z,2.56
2018-01-17T22:08:44.599Z,2.56
2018-01-17T22:11:12.227Z,2.62
2018-01-17T22:13:39.766Z,2.66
2018-01-17T22:16:07.290Z,2.63
2018-01-17T22:18:34.846Z,2.65
2018-01-17T22:21:02.367Z,2.64
2018-01-17T22:23:29.899Z,2.62
2018-01-17T22:25:57.517Z,2.66
2018-01-17T22:28:25.145Z,2.70
2018-01-17T22:30:52.717Z,2.72
2018-01-17T22:33:20.273Z,2.75
2018-01-17T22:35:47.802Z,2.72
2018-01-17T22:38:15.318Z,2.69
2018-01-17T22:40:42.880Z,2.66
2018-01-17T22:43:10.594Z,2.61
2018-01-17T22:45:38.120Z,2.57
2018-01-17T22:48:05.800Z,2.56
2018-01-17T22:50:33.316Z,2.61
2018-01-17T22:53:00.821Z,2.62
2018-01-17T22:55:28.363Z,2.61
2018-01-17T22:57:55.868Z,2.62
2018-01-17T23:00:23.398Z,2.65
2018-01-17T23:02:50.897Z,2.61
2018-01-17T23:05:18.395Z,2.65
2018-01-17T23:07:46.097Z,2.58
2018-01-17T23:10:13.607Z,2.59
2018-01-17T23:12:41.198Z,2.59
2018-01-17T23:15:08.977Z,2.58
2018-01-17T23:17:36.506Z,2.52
2018-01-17T23:20:04.014Z,2.57
2018-01-17T23:22:31.526Z,2.53
2018-01-17T23:24:59.031Z,2.53
2018-01-17T23:27:26.641Z,2.56
2018-01-17T23:29:54.230Z,2.57
2018-01-17T23:32:21.890Z,2.63
2018-01-17T23:34:49.412Z,2.65
2018-01-17T23:37:16.933Z,2.65
2018-01-17T23:39:44.432Z,2.63
2018-01-17T23:42:11.998Z,2.60
2018-01-17T23:44:39.589Z,2.53
2018-01-17T23:47:07.160Z,2.52
2018-01-17T23:49:34.706Z,2.52
2018-01-17T23:52:02.245Z,2.56
2018-01-17T23:54:29.753Z,2.57
2018-01-17T23:56:57.687Z,2.63
2018-01-17T23:59:25.180Z,2.61
